Time;durP1;ratioP1;P1;durP2;ratioP2;P2;SDS_P1;SDS_P2;PMS_P1;PMS_P2;Temp;Humidity;BMP_temperature;BMP_pressure;BME280_temperature;BME280_humidity;BME280_pressure;Samples;Min_cycle;Max_cycle;Signal;HPM_P1;HPM_P2
2022/11/02 00:02:00;;;;;;;4.47;1.45;;;14.90;99.90;;;;;;4126425;28;20498;-62
2022/11/02 00:04:00;;;;;;;12.57;2.80;;;14.90;99.90;;;;;;4127273;28;20524;-61
2022/11/02 00:06:01;;;;;;;6.70;1.60;;;14.90;99.90;;;;;;4126172;28;20533;-61
2022/11/02 00:08:02;;;;;;;4.50;1.80;;;14.90;99.90;;;;;;4128598;28;20493;-61
2022/11/02 00:10:03;;;;;;;11.77;2.17;;;14.90;99.90;;;;;;4126371;28;20138;-62
2022/11/02 00:12:04;;;;;;;9.65;2.17;;;14.90;99.90;;;;;;4126784;28;20113;-62
2022/11/02 00:14:04;;;;;;;8.77;2.42;;;14.90;99.90;;;;;;4127581;28;20494;-61
2022/11/02 00:16:10;;;;;;;10.38;2.10;;;14.90;99.90;;;;;;4126997;28;20058;-62
2022/11/02 00:18:12;;;;;;;8.88;1.70;;;14.90;99.90;;;;;;4127910;28;20027;-62
2022/11/02 00:20:15;;;;;;;7.60;2.13;;;14.90;99.90;;;;;;4123910;28;20474;-61
2022/11/02 00:22:16;;;;;;;8.35;2.22;;;14.90;99.90;;;;;;4127350;28;20129;-62
2022/11/02 00:24:16;;;;;;;9.82;2.08;;;14.90;99.90;;;;;;4127754;28;20405;-61
2022/11/02 00:26:17;;;;;;;10.10;2.40;;;14.90;99.90;;;;;;4126728;28;20220;-61
2022/11/02 00:28:18;;;;;;;8.80;2.45;;;14.90;99.90;;;;;;4126725;28;20492;-62
2022/11/02 00:30:19;;;;;;;10.48;2.38;;;14.90;99.90;;;;;;4125807;28;20050;-61
2022/11/02 00:32:20;;;;;;;13.60;2.25;;;15.00;99.90;;;;;;4127461;28;20049;-61
2022/11/02 00:34:20;;;;;;;15.18;2.78;;;15.00;99.90;;;;;;4127326;28;20507;-61
2022/11/02 00:36:23;;;;;;;11.25;2.55;;;14.90;99.90;;;;;;4124170;28;20046;-61
2022/11/02 00:38:24;;;;;;;7.93;2.10;;;14.90;99.90;;;;;;4126053;28;20085;-61
2022/11/02 00:40:24;;;;;;;9.48;2.28;;;14.90;99.90;;;;;;4120399;28;20086;-61
2022/11/02 00:42:25;;;;;;;9.70;2.40;;;14.90;99.90;;;;;;4125360;28;20027;-61
2022/11/02 00:44:25;;;;;;;13.07;2.88;;;14.90;99.90;;;;;;4120980;28;20019;-61
2022/11/02 00:46:26;;;;;;;8.05;1.92;;;14.90;99.90;;;;;;4125837;28;20077;-61
2022/11/02 00:48:27;;;;;;;10.07;2.40;;;15.00;99.90;;;;;;4123365;28;20034;-61
2022/11/02 00:50:27;;;;;;;8.05;2.40;;;14.90;99.90;;;;;;4123917;28;20023;-61
2022/11/02 00:52:28;;;;;;;7.93;1.75;;;14.90;99.90;;;;;;4123977;28;20485;-61
2022/11/02 00:54:28;;;;;;;7.53;1.75;;;14.90;99.90;;;;;;4123261;28;20393;-64
2022/11/02 00:56:29;;;;;;;6.43;2.08;;;15.00;99.90;;;;;;4125062;28;20106;-62
2022/11/02 00:58:29;;;;;;;10.20;2.10;;;15.00;99.90;;;;;;4124351;28;20038;-62
2022/11/02 01:00:30;;;;;;;5.47;1.95;;;14.90;99.90;;;;;;4119787;28;20077;-61
2022/11/02 01:02:32;;;;;;;6.82;1.88;;;15.00;99.90;;;;;;4122579;28;20580;-62
2022/11/02 01:04:33;;;;;;;6.70;1.90;;;14.90;99.90;;;;;;4126421;28;20041;-61
2022/11/02 01:06:33;;;;;;;6.63;1.98;;;14.90;99.90;;;;;;4121340;28;20027;-61
2022/11/02 01:08:34;;;;;;;9.10;2.03;;;14.90;99.90;;;;;;4124553;28;20034;-61
2022/11/02 01:10:34;;;;;;;11.98;2.45;;;14.90;99.90;;;;;;4122701;28;20042;-61
2022/11/02 01:12:39;;;;;;;8.30;2.10;;;14.90;99.90;;;;;;4122815;28;20030;-62
2022/11/02 01:14:39;;;;;;;7.22;2.13;;;14.90;99.90;;;;;;4122478;28;20113;-61
2022/11/02 01:16:40;;;;;;;7.50;2.00;;;14.90;99.90;;;;;;4124751;28;20425;-61
2022/11/02 01:18:41;;;;;;;6.72;2.00;;;14.90;99.90;;;;;;4123258;28;20076;-62
2022/11/02 01:20:41;;;;;;;5.55;1.75;;;14.90;99.90;;;;;;4123174;28;20031;-62
2022/11/02 01:22:42;;;;;;;10.45;2.75;;;14.90;99.90;;;;;;4126748;28;20481;-62
2022/11/02 01:24:42;;;;;;;8.35;2.17;;;14.80;99.90;;;;;;4125911;28;20080;-62
2022/11/02 01:26:43;;;;;;;9.32;2.75;;;14.80;99.90;;;;;;4122806;28;20044;-61
2022/11/02 01:28:44;;;;;;;5.85;1.85;;;14.80;99.90;;;;;;4123533;28;20572;-62
2022/11/02 01:30:47;;;;;;;10.13;2.08;;;14.80;99.90;;;;;;4123430;28;20517;-61
2022/11/02 01:32:48;;;;;;;8.02;2.10;;;14.80;99.90;;;;;;4124828;28;20037;-61
2022/11/02 01:34:48;;;;;;;8.10;2.10;;;14.80;99.90;;;;;;4122566;28;20069;-62
2022/11/02 01:36:49;;;;;;;7.50;1.95;;;14.70;99.90;;;;;;4124596;28;20113;-61
2022/11/02 01:38:49;;;;;;;14.75;2.38;;;14.70;99.90;;;;;;4125958;28;20049;-60
2022/11/02 01:40:50;;;;;;;8.80;2.22;;;14.70;99.90;;;;;;4125051;28;20034;-61
2022/11/02 01:42:50;;;;;;;8.43;2.00;;;14.70;99.90;;;;;;4121631;28;20178;-61
2022/11/02 01:44:51;;;;;;;10.55;2.53;;;14.70;99.90;;;;;;4119490;28;20038;-61
2022/11/02 01:46:55;;;;;;;6.57;2.30;;;14.60;99.90;;;;;;4125064;28;20402;-61
2022/11/02 01:49:14;;;;;;;7.65;1.70;;;14.60;99.90;;;;;;4124190;28;20089;-61
2022/11/02 01:51:26;;;;;;;7.60;1.88;;;14.60;99.90;;;;;;4122779;28;20030;-61
2022/11/02 01:53:28;;;;;;;6.80;2.28;;;14.60;99.90;;;;;;4125756;28;20089;-61
2022/11/02 01:55:32;;;;;;;7.50;2.40;;;14.60;99.90;;;;;;4123108;28;20061;-61
2022/11/02 01:57:35;;;;;;;7.28;2.10;;;14.60;99.90;;;;;;4125498;28;20035;-62
2022/11/02 01:59:38;;;;;;;;;;;14.60;99.90;;;;;;4124998;28;20046;-61
2022/11/02 02:01:38;;;;;;;8.57;2.35;;;14.70;99.90;;;;;;4124002;28;20435;-61
2022/11/02 02:03:40;;;;;;;8.90;2.03;;;14.60;99.90;;;;;;4126618;28;20026;-61
2022/11/02 02:05:52;;;;;;;10.75;2.53;;;14.60;99.90;;;;;;4125711;28;20388;-62
2022/11/02 02:07:54;;;;;;;13.27;2.33;;;14.70;99.90;;;;;;4125416;28;20034;-61
2022/11/02 02:09:55;;;;;;;7.77;2.03;;;14.70;99.90;;;;;;4123369;28;21206;-61
2022/11/02 02:11:55;;;;;;;7.10;1.60;;;14.60;99.90;;;;;;4122143;28;20036;-61
2022/11/02 02:13:59;;;;;;;8.27;2.47;;;14.70;99.90;;;;;;4126373;28;20484;-61
2022/11/02 02:16:28;;;;;;;5.30;1.60;;;14.60;99.90;;;;;;4123671;28;20532;-63
2022/11/02 02:18:44;;;;;;;7.13;1.92;;;14.70;99.90;;;;;;4125658;28;20037;-61
2022/11/02 02:21:00;;;;;;;6.47;1.80;;;14.60;99.90;;;;;;4123442;28;20030;-61
2022/11/02 02:23:37;;;;;;;9.00;1.98;;;14.70;99.90;;;;;;4125010;28;20033;-62
2022/11/02 02:26:05;;;;;;;7.28;1.77;;;14.60;99.90;;;;;;4121987;28;20029;-61
2022/11/02 02:28:18;;;;;;;13.88;2.28;;;14.60;99.90;;;;;;4125129;28;20579;-61
2022/11/02 02:30:19;;;;;;;8.32;2.40;;;14.50;99.90;;;;;;4122500;28;20034;-62
2022/11/02 02:32:59;;;;;;;7.05;1.85;;;14.50;99.90;;;;;;4125591;28;20027;-61
2022/11/02 02:35:12;;;;;;;8.55;2.22;;;14.40;99.90;;;;;;4124604;28;20038;-61
2022/11/02 02:37:18;;;;;;;9.43;2.35;;;14.50;99.90;;;;;;4126369;28;20030;-62
2022/11/02 02:39:48;;;;;;;6.13;2.00;;;14.40;99.90;;;;;;4122148;28;20046;-61
2022/11/02 02:42:12;;;;;;;6.00;1.90;;;14.30;99.90;;;;;;4123547;28;20038;-61
2022/11/02 02:44:19;;;;;;;7.10;1.95;;;14.30;99.90;;;;;;4124456;28;20035;-61
2022/11/02 02:46:41;;;;;;;10.38;2.60;;;14.30;99.90;;;;;;4124351;28;20034;-61
2022/11/02 02:48:44;;;;;;;7.93;2.20;;;14.30;99.90;;;;;;4125119;28;20043;-65
2022/11/02 02:50:49;;;;;;;8.20;2.63;;;14.30;99.90;;;;;;4120033;28;20085;-61
2022/11/02 02:52:52;;;;;;;7.95;2.33;;;14.30;99.90;;;;;;4126059;28;20571;-61
2022/11/02 02:54:56;;;;;;;7.78;2.13;;;14.30;99.90;;;;;;4125911;28;20122;-61
2022/11/02 02:57:05;;;;;;;7.43;1.70;;;14.20;99.90;;;;;;4122244;28;20486;-61
2022/11/02 02:59:12;;;;;;;7.28;1.90;;;14.30;99.90;;;;;;4124000;28;20042;-61
2022/11/02 03:01:15;;;;;;;13.20;2.70;;;14.20;99.90;;;;;;4122445;28;20038;-61
2022/11/02 03:03:19;;;;;;;7.25;2.15;;;14.20;99.90;;;;;;4127027;28;20034;-61
2022/11/02 03:05:32;;;;;;;8.23;2.03;;;14.20;99.90;;;;;;4126124;28;20129;-61
2022/11/02 03:07:33;;;;;;;7.25;2.20;;;14.20;99.90;;;;;;4126717;28;20066;-62
2022/11/02 03:10:12;;;;;;;7.45;2.28;;;14.20;99.90;;;;;;4126322;28;20417;-61
2022/11/02 03:12:28;;;;;;;11.38;2.70;;;14.20;99.90;;;;;;4123824;28;20105;-61
2022/11/02 03:15:05;;;;;;;5.95;2.00;;;14.20;99.90;;;;;;4127188;28;20023;-61
2022/11/02 03:17:28;;;;;;;7.28;2.35;;;14.20;99.90;;;;;;4123891;28;20460;-61
2022/11/02 03:19:34;;;;;;;;;;;14.20;99.90;;;;;;4121657;28;20031;-61
2022/11/02 03:21:40;;;;;;;4.80;1.50;;;14.20;99.90;;;;;;4122818;28;19909;-61
2022/11/02 03:24:05;;;;;;;7.47;2.15;;;14.20;99.90;;;;;;4124471;28;20080;-61
2022/11/02 03:26:08;;;;;;;7.22;1.83;;;14.20;99.90;;;;;;4124896;28;20477;-61
2022/11/02 03:28:25;;;;;;;9.27;2.20;;;14.10;99.90;;;;;;4125234;28;20450;-61
2022/11/02 03:30:29;;;;;;;8.85;1.95;;;14.20;99.90;;;;;;4122595;28;20434;-61
2022/11/02 03:33:01;;;;;;;6.88;2.00;;;14.10;99.90;;;;;;4125984;28;20035;-61
2022/11/02 03:35:05;;;;;;;4.22;1.40;;;14.10;99.90;;;;;;4124294;28;20046;-62
2022/11/02 03:37:24;;;;;;;7.93;2.00;;;14.10;99.90;;;;;;4126072;28;20096;-61
2022/11/02 03:39:40;;;;;;;7.00;1.65;;;14.10;99.90;;;;;;4125964;28;20042;-61
2022/11/02 03:41:44;;;;;;;10.70;2.60;;;14.00;99.90;;;;;;4123311;28;20038;-61
2022/11/02 03:43:47;;;;;;;9.00;2.10;;;14.00;99.90;;;;;;4125968;28;20056;-61
2022/11/02 03:45:52;;;;;;;7.53;1.70;;;14.10;99.90;;;;;;4126139;28;20109;-61
2022/11/02 03:48:00;;;;;;;8.15;2.20;;;14.10;99.90;;;;;;4125022;28;20037;-61
2022/11/02 03:50:02;;;;;;;8.43;2.33;;;14.10;99.90;;;;;;4124129;28;20110;-61
2022/11/02 03:52:07;;;;;;;7.80;2.00;;;14.00;99.90;;;;;;4122647;28;20096;-62
2022/11/02 03:54:14;;;;;;;6.75;1.92;;;14.00;99.90;;;;;;4128088;28;20030;-61
2022/11/02 03:56:25;;;;;;;6.85;2.25;;;14.00;99.90;;;;;;4126650;28;20065;-61
2022/11/02 03:58:26;;;;;;;6.55;1.88;;;14.00;99.90;;;;;;4129305;28;20058;-61
2022/11/02 04:00:31;;;;;;;7.93;2.33;;;13.90;99.90;;;;;;4124581;28;20042;-61
2022/11/02 04:02:36;;;;;;;6.10;1.75;;;14.00;99.90;;;;;;4128082;28;20035;-62
2022/11/02 04:04:49;;;;;;;6.57;2.10;;;13.90;99.90;;;;;;4128409;28;20085;-61
2022/11/02 04:06:51;;;;;;;8.00;1.83;;;13.90;99.90;;;;;;4127624;28;20088;-61
2022/11/02 04:08:52;;;;;;;6.57;1.57;;;13.90;99.90;;;;;;4128185;28;20038;-61
2022/11/02 04:15:31;;;;;;;10.05;2.17;;;13.90;99.90;;;;;;4128258;28;20030;-62
2022/11/02 04:19:51;;;;;;;7.85;1.63;;;13.90;99.90;;;;;;4127594;28;20030;-61
2022/11/02 04:26:30;;;;;;;5.25;1.52;;;13.90;99.90;;;;;;4128303;28;20023;-61
2022/11/02 04:28:31;;;;;;;7.47;2.03;;;13.90;99.90;;;;;;4128342;28;20093;-61
2022/11/02 04:30:31;;;;;;;4.90;1.40;;;13.80;99.90;;;;;;4126598;28;20596;-61
2022/11/02 04:35:18;;;;;;;6.35;2.13;;;13.90;99.90;;;;;;4124268;28;20046;-61
2022/11/02 04:39:38;;;;;;;9.75;2.20;;;13.80;99.90;;;;;;4127530;28;20126;-61
2022/11/02 04:41:41;;;;;;;9.50;2.13;;;13.80;99.90;;;;;;4125973;28;20440;-61
2022/11/02 04:43:43;;;;;;;8.15;1.83;;;13.80;99.90;;;;;;4128183;28;20092;-61
2022/11/02 04:45:43;;;;;;;14.13;2.72;;;13.80;99.90;;;;;;4125608;28;20113;-62
2022/11/02 04:47:44;;;;;;;7.97;2.00;;;13.80;99.90;;;;;;4127572;28;20038;-61
2022/11/02 04:49:45;;;;;;;8.50;2.30;;;13.70;99.90;;;;;;4126676;28;20121;-61
2022/11/02 04:51:45;;;;;;;10.18;2.63;;;13.70;99.90;;;;;;4127049;28;20042;-63
2022/11/02 04:53:47;;;;;;;13.45;2.50;;;13.70;99.90;;;;;;4127998;28;20039;-62
2022/11/02 04:55:48;;;;;;;12.67;2.33;;;13.80;99.90;;;;;;4128064;28;20405;-61
2022/11/02 04:57:48;;;;;;;8.90;2.22;;;13.70;99.90;;;;;;4127262;28;20030;-61
2022/11/02 04:59:49;;;;;;;7.97;2.25;;;13.70;99.90;;;;;;4127174;28;20121;-61
2022/11/02 05:01:49;;;;;;;9.40;2.40;;;13.70;99.90;;;;;;4124212;28;20379;-61
2022/11/02 05:03:52;;;;;;;8.68;2.40;;;13.70;99.90;;;;;;4127053;28;20452;-61
2022/11/02 05:05:55;;;;;;;7.47;2.15;;;13.70;99.90;;;;;;4126991;28;20045;-61
2022/11/02 05:07:56;;;;;;;9.43;2.25;;;13.60;99.90;;;;;;4125201;28;20379;-61
2022/11/02 05:09:56;;;;;;;12.73;2.33;;;13.60;99.90;;;;;;4125005;28;20112;-61
2022/11/02 05:11:57;;;;;;;7.57;2.00;;;13.70;99.90;;;;;;4123499;28;20108;-61
2022/11/02 05:13:57;;;;;;;5.82;1.77;;;13.60;99.90;;;;;;4128328;28;20030;-61
2022/11/02 05:15:58;;;;;;;7.47;2.00;;;13.60;99.90;;;;;;4127457;28;20031;-61
2022/11/02 05:17:59;;;;;;;11.43;2.55;;;13.70;99.90;;;;;;4126614;28;20030;-61
2022/11/02 05:20:00;;;;;;;12.23;2.45;;;13.60;99.90;;;;;;4122858;28;20108;-61
2022/11/02 05:22:00;;;;;;;10.75;2.40;;;13.60;99.90;;;;;;4121418;28;20030;-61
2022/11/02 05:24:01;;;;;;;7.70;2.30;;;13.60;99.90;;;;;;4126573;28;20042;-61
2022/11/02 05:26:04;;;;;;;8.90;1.80;;;13.50;99.90;;;;;;4125565;28;20050;-61
2022/11/02 05:28:05;;;;;;;12.85;1.95;;;13.50;99.90;;;;;;4120482;28;22364;-61
2022/11/02 05:30:06;;;;;;;11.10;2.40;;;13.50;99.90;;;;;;4123506;28;20394;-61
2022/11/02 05:32:06;;;;;;;11.65;2.55;;;13.50;99.90;;;;;;4124987;28;20426;-61
2022/11/02 05:34:07;;;;;;;6.85;2.20;;;13.50;99.90;;;;;;4127873;28;20043;-61
2022/11/02 05:36:08;;;;;;;8.40;2.35;;;13.50;99.90;;;;;;4125802;28;20093;-61
2022/11/02 05:38:09;;;;;;;7.10;2.00;;;13.50;99.90;;;;;;4126902;28;20045;-61
2022/11/02 05:40:10;;;;;;;7.30;1.83;;;13.50;99.90;;;;;;4125339;28;20042;-62
2022/11/02 05:42:10;;;;;;;6.38;1.73;;;13.60;99.90;;;;;;4124002;28;20496;-61
2022/11/02 05:44:11;;;;;;;8.77;2.17;;;13.50;99.90;;;;;;4124586;28;20030;-61
2022/11/02 05:46:13;;;;;;;7.00;2.05;;;13.50;99.90;;;;;;4123317;28;20057;-61
2022/11/02 05:48:14;;;;;;;9.27;2.20;;;13.50;99.90;;;;;;4124427;28;20130;-61
2022/11/02 05:50:15;;;;;;;6.38;2.15;;;13.50;99.90;;;;;;4123229;28;20182;-61
2022/11/02 05:52:15;;;;;;;9.43;1.98;;;13.50;99.90;;;;;;4127048;28;20038;-65
2022/11/02 05:54:16;;;;;;;8.13;2.00;;;13.50;99.90;;;;;;4130407;28;20188;-62
2022/11/02 05:56:17;;;;;;;7.60;2.22;;;13.50;99.90;;;;;;4122605;28;21360;-62
2022/11/02 05:58:17;;;;;;;10.25;2.15;;;13.40;99.90;;;;;;4124857;28;20034;-62
2022/11/02 06:00:19;;;;;;;7.78;2.20;;;13.40;99.90;;;;;;4123362;28;20059;-61
2022/11/02 06:02:20;;;;;;;7.88;1.80;;;13.40;99.90;;;;;;4126305;28;20047;-62
2022/11/02 06:04:20;;;;;;;8.63;2.10;;;13.40;99.90;;;;;;4128061;28;20037;-61
2022/11/02 06:06:21;;;;;;;7.30;2.03;;;13.30;99.90;;;;;;4127650;28;20508;-61
2022/11/02 06:08:22;;;;;;;9.55;2.45;;;13.40;99.90;;;;;;4126033;28;20049;-61
2022/11/02 06:10:22;;;;;;;8.10;1.98;;;13.30;99.90;;;;;;4122280;28;20130;-64
2022/11/02 06:12:23;;;;;;;10.30;2.70;;;13.30;99.90;;;;;;4125602;28;20073;-63
2022/11/02 06:14:23;;;;;;;7.10;1.83;;;13.30;99.90;;;;;;4125364;28;20042;-64
2022/11/02 06:16:24;;;;;;;5.38;1.65;;;13.30;99.90;;;;;;4124604;28;20180;-64
2022/11/02 06:18:25;;;;;;;12.98;3.13;;;13.30;99.90;;;;;;4126065;28;20030;-64
2022/11/02 06:20:25;;;;;;;8.30;2.00;;;13.30;99.90;;;;;;4121937;28;20414;-64
2022/11/02 06:22:26;;;;;;;16.08;3.15;;;13.40;99.90;;;;;;4120386;28;20036;-64
2022/11/02 06:24:27;;;;;;;11.30;2.10;;;13.40;99.90;;;;;;4122350;28;20113;-64
2022/11/02 06:26:27;;;;;;;9.10;2.28;;;13.30;99.90;;;;;;4124312;28;20085;-64
2022/11/02 06:28:29;;;;;;;11.85;2.50;;;13.30;99.90;;;;;;4118786;28;20026;-64
2022/11/02 06:30:30;;;;;;;11.32;2.42;;;13.30;99.90;;;;;;4121003;28;20034;-64
2022/11/02 06:32:31;;;;;;;13.45;2.30;;;13.30;99.90;;;;;;4122001;28;20027;-64
2022/11/02 06:34:31;;;;;;;7.57;2.03;;;13.30;99.90;;;;;;4120182;28;20026;-63
2022/11/02 06:36:32;;;;;;;5.85;1.70;;;13.40;99.90;;;;;;4125820;28;20548;-64
2022/11/02 06:38:32;;;;;;;10.18;2.13;;;13.40;99.90;;;;;;4121669;28;21236;-63
2022/11/02 06:40:33;;;;;;;8.32;2.70;;;13.40;99.90;;;;;;4123522;28;20081;-64
2022/11/02 06:42:34;;;;;;;8.98;2.50;;;13.40;99.90;;;;;;4126934;28;20031;-64
2022/11/02 06:44:34;;;;;;;7.97;1.98;;;13.40;99.90;;;;;;4126403;28;20085;-65
2022/11/02 06:46:35;;;;;;;17.60;2.42;;;13.40;99.90;;;;;;4126279;28;21022;-64
2022/11/02 06:48:36;;;;;;;15.05;2.65;;;13.40;99.90;;;;;;4125160;28;20049;-64
2022/11/02 06:50:36;;;;;;;9.43;2.15;;;13.40;99.90;;;;;;4122114;28;20034;-63
2022/11/02 06:52:45;;;;;;;7.90;2.35;;;13.40;99.90;;;;;;4127345;28;20039;-62
2022/11/02 06:54:46;;;;;;;15.80;2.70;;;13.40;99.90;;;;;;4126225;28;20034;-62
2022/11/02 06:56:46;;;;;;;10.60;2.90;;;13.40;99.90;;;;;;4122207;28;20458;-64
2022/11/02 06:58:47;;;;;;;10.05;2.67;;;13.40;99.90;;;;;;4118763;28;20046;-64
2022/11/02 07:00:48;;;;;;;9.70;2.35;;;13.40;99.90;;;;;;4122154;28;20129;-65
2022/11/02 07:03:02;;;;;;;9.23;2.08;;;13.40;99.90;;;;;;4119687;28;20080;-64
2022/11/02 07:05:03;;;;;;;14.95;3.22;;;13.40;99.90;;;;;;4121338;28;20445;-64
2022/11/02 07:07:03;;;;;;;10.90;2.30;;;13.40;99.90;;;;;;4121109;28;20034;-63
2022/11/02 07:09:04;;;;;;;12.63;2.50;;;13.40;99.90;;;;;;4119742;28;20117;-64
2022/11/02 07:11:05;;;;;;;6.97;2.15;;;13.40;99.90;;;;;;4122367;28;20037;-67
2022/11/02 07:13:05;;;;;;;14.20;2.78;;;13.40;99.90;;;;;;4123381;28;20387;-64
2022/11/02 07:15:06;;;;;;;8.43;2.67;;;13.40;99.90;;;;;;4120847;28;20044;-66
2022/11/02 07:17:07;;;;;;;8.50;1.98;;;13.40;99.90;;;;;;4122365;28;20469;-64
2022/11/02 07:19:07;;;;;;;6.13;2.03;;;13.40;99.90;;;;;;4121010;28;20026;-64
2022/11/02 07:21:10;;;;;;;14.00;2.30;;;13.40;99.90;;;;;;4122718;28;20046;-64
2022/11/02 07:23:10;;;;;;;9.35;2.00;;;13.50;99.90;;;;;;4125258;28;20045;-64
2022/11/02 07:25:11;;;;;;;9.48;2.08;;;13.50;99.90;;;;;;4118188;28;20398;-65
2022/11/02 07:27:13;;;;;;;8.50;2.35;;;13.40;99.90;;;;;;4122152;28;20050;-64
2022/11/02 07:29:14;;;;;;;12.48;2.47;;;13.50;99.90;;;;;;4124497;28;20741;-64
2022/11/02 07:31:14;;;;;;;15.55;2.53;;;13.40;99.90;;;;;;4123118;28;20062;-63
2022/11/02 07:33:15;;;;;;;10.30;1.95;;;13.50;99.90;;;;;;4127688;28;20038;-63
2022/11/02 07:35:16;;;;;;;11.02;2.20;;;13.50;99.90;;;;;;4124310;28;20041;-64
2022/11/02 07:37:17;;;;;;;7.35;2.40;;;13.50;99.90;;;;;;4125383;28;20034;-65
2022/11/02 07:39:17;;;;;;;10.95;2.63;;;13.60;99.90;;;;;;4124180;28;20043;-65
2022/11/02 07:41:18;;;;;;;9.55;2.30;;;13.60;99.90;;;;;;4126932;28;20026;-64
2022/11/02 07:43:18;;;;;;;6.30;2.20;;;13.70;99.90;;;;;;4125897;28;20394;-64
2022/11/02 07:45:21;;;;;;;9.30;2.28;;;13.80;99.90;;;;;;4124482;28;20168;-64
2022/11/02 07:47:21;;;;;;;8.05;2.10;;;13.80;99.90;;;;;;4125522;28;20042;-64
2022/11/02 07:49:22;;;;;;;5.30;1.88;;;13.90;99.90;;;;;;4123296;28;20038;-64
2022/11/02 07:51:23;;;;;;;7.95;2.20;;;14.10;99.90;;;;;;4124291;28;20057;-64
2022/11/02 07:53:23;;;;;;;7.75;2.20;;;14.20;99.90;;;;;;4126496;28;20039;-64
2022/11/02 07:55:26;;;;;;;14.73;2.63;;;14.40;99.90;;;;;;4121790;28;20506;-64
2022/11/02 07:57:27;;;;;;;13.55;2.72;;;14.50;99.90;;;;;;4126579;28;20109;-64
2022/11/02 07:59:27;;;;;;;6.00;1.90;;;14.70;99.90;;;;;;4124404;28;20054;-64
2022/11/02 08:01:28;;;;;;;11.82;2.13;;;14.80;99.90;;;;;;4122630;28;20031;-64
2022/11/02 08:03:29;;;;;;;5.18;1.90;;;15.10;99.90;;;;;;4126378;28;20490;-64
2022/11/02 08:05:32;;;;;;;7.18;2.03;;;15.30;99.90;;;;;;4121429;28;20035;-64
2022/11/02 08:07:33;;;;;;;6.57;2.47;;;15.50;99.90;;;;;;4124037;28;20092;-64
2022/11/02 08:09:34;;;;;;;5.80;2.00;;;15.80;99.90;;;;;;4125059;28;20027;-64
2022/11/02 08:11:34;;;;;;;13.93;2.25;;;16.00;99.90;;;;;;4124385;28;20038;-64
2022/11/02 08:13:36;;;;;;;7.18;1.95;;;16.00;99.90;;;;;;4129313;28;20409;-64
2022/11/02 08:15:37;;;;;;;10.27;2.03;;;16.10;99.90;;;;;;4129525;28;20117;-65
2022/11/02 08:17:37;;;;;;;6.88;2.22;;;16.30;99.90;;;;;;4129178;28;20042;-65
2022/11/02 08:19:38;;;;;;;9.30;2.47;;;16.50;99.90;;;;;;4127777;28;20042;-64
2022/11/02 08:21:39;;;;;;;7.82;1.77;;;16.70;99.90;;;;;;4126141;28;20042;-65
2022/11/02 08:23:39;;;;;;;6.80;2.30;;;16.80;99.90;;;;;;4129544;28;20034;-65
2022/11/02 08:25:41;;;;;;;9.93;1.92;;;16.90;99.90;;;;;;4128075;28;20478;-65
2022/11/02 08:27:41;;;;;;;6.40;1.77;;;16.90;99.90;;;;;;4127542;28;20096;-65
2022/11/02 08:29:42;;;;;;;6.55;1.52;;;17.00;99.90;;;;;;4128245;28;20437;-65
2022/11/02 08:31:42;;;;;;;4.80;1.77;;;17.20;99.90;;;;;;4124514;28;20038;-64
2022/11/02 08:33:44;;;;;;;9.80;2.50;;;17.40;99.90;;;;;;4128507;28;20520;-64
2022/11/02 08:35:46;;;;;;;9.25;2.33;;;17.60;99.90;;;;;;4127257;28;20042;-64
2022/11/02 08:37:56;;;;;;;9.10;2.55;;;17.60;99.90;;;;;;4125209;28;20085;-65
2022/11/02 08:39:57;;;;;;;7.15;1.80;;;17.70;99.90;;;;;;4124722;28;20030;-65
2022/11/02 08:41:57;;;;;;;7.18;2.08;;;17.70;99.90;;;;;;4127901;28;20049;-65
2022/11/02 08:43:58;;;;;;;11.82;2.70;;;17.90;99.90;;;;;;4127688;28;20123;-65
2022/11/02 08:45:59;;;;;;;5.00;1.60;;;17.90;99.90;;;;;;4123990;28;20035;-65
2022/11/02 08:48:00;;;;;;;9.20;1.95;;;18.10;99.90;;;;;;4127138;28;20077;-65
2022/11/02 08:50:00;;;;;;;9.80;2.00;;;17.90;99.90;;;;;;4126793;28;20030;-65
2022/11/02 08:52:01;;;;;;;9.30;2.40;;;17.80;99.90;;;;;;4128377;28;20050;-65
2022/11/02 08:54:01;;;;;;;9.70;2.42;;;17.60;99.90;;;;;;4127583;28;20033;-65
2022/11/02 08:56:02;;;;;;;8.90;2.08;;;17.50;99.90;;;;;;4126724;28;20076;-65
2022/11/02 08:58:03;;;;;;;8.57;2.40;;;17.40;99.90;;;;;;4129214;28;20026;-64
2022/11/02 09:00:05;;;;;;;6.65;2.30;;;17.40;99.90;;;;;;4127526;28;20062;-65
2022/11/02 09:02:05;;;;;;;7.32;1.95;;;17.30;99.90;;;;;;4125997;28;20056;-65
2022/11/02 09:04:06;;;;;;;7.00;2.00;;;17.20;99.90;;;;;;4125281;28;20058;-65
2022/11/02 09:06:07;;;;;;;6.13;1.98;;;17.30;99.90;;;;;;4126439;28;20713;-67
2022/11/02 09:08:12;;;;;;;6.13;1.73;;;17.40;99.90;;;;;;4128331;28;20389;-66
2022/11/02 09:10:12;;;;;;;9.20;2.30;;;17.50;99.90;;;;;;4126695;28;20031;-65
2022/11/02 09:12:13;;;;;;;9.02;2.10;;;17.40;99.90;;;;;;4122208;28;20507;-65
2022/11/02 09:14:13;;;;;;;6.38;1.80;;;17.40;99.90;;;;;;4127709;28;20039;-65
2022/11/02 09:16:14;;;;;;;5.93;1.73;;;17.40;99.90;;;;;;4126760;28;20050;-65
2022/11/02 09:18:14;;;;;;;7.97;2.22;;;17.40;99.90;;;;;;4128401;28;20037;-65
2022/11/02 09:20:16;;;;;;;6.68;1.77;;;17.40;99.90;;;;;;4126490;28;20042;-65
2022/11/02 09:22:17;;;;;;;10.38;2.55;;;17.20;99.90;;;;;;4125535;28;20049;-65
2022/11/02 09:24:17;;;;;;;5.75;2.13;;;17.00;99.90;;;;;;4126923;28;20034;-65
2022/11/02 09:26:18;;;;;;;7.50;2.55;;;16.90;99.90;;;;;;4124442;28;20047;-65
2022/11/02 09:28:18;;;;;;;4.93;1.90;;;16.70;99.90;;;;;;4138747;28;20081;-68
2022/11/02 09:30:20;;;;;;;6.85;1.83;;;16.80;99.90;;;;;;4125784;28;20042;-66
2022/11/02 09:32:20;;;;;;;8.50;2.15;;;16.70;99.90;;;;;;4120055;28;20062;-65
2022/11/02 09:34:21;;;;;;;7.30;2.45;;;16.60;99.90;;;;;;4127595;28;20053;-65
2022/11/02 09:36:22;;;;;;;7.28;1.90;;;16.60;99.90;;;;;;4126147;28;20034;-65
2022/11/02 09:38:22;;;;;;;5.40;1.80;;;16.60;99.90;;;;;;4128620;28;20054;-65
2022/11/02 09:40:26;;;;;;;5.20;1.92;;;16.60;99.90;;;;;;4124084;28;20046;-65
2022/11/02 09:42:58;;;;;;;9.65;1.77;;;16.70;99.90;;;;;;4128245;28;20125;-65
2022/11/02 09:45:01;;;;;;;6.70;2.15;;;16.80;99.90;;;;;;4127477;28;20031;-65
2022/11/02 09:47:02;;;;;;;9.65;2.67;;;16.80;99.90;;;;;;4127243;28;20605;-65
2022/11/02 09:49:10;;;;;;;12.20;2.58;;;16.90;99.90;;;;;;4125560;28;20039;-65
2022/11/02 09:51:13;;;;;;;14.18;2.28;;;16.90;99.90;;;;;;4120986;28;20478;-65
2022/11/02 09:53:23;;;;;;;10.05;1.92;;;16.80;99.90;;;;;;4128746;28;20031;-65
2022/11/02 09:55:30;;;;;;;10.80;2.85;;;16.70;99.90;;;;;;4120713;28;20146;-65
2022/11/02 09:57:32;;;;;;;9.77;2.72;;;16.70;99.90;;;;;;4122136;28;20042;-65
2022/11/02 09:59:33;;;;;;;7.25;2.28;;;16.50;99.90;;;;;;4121425;28;20469;-64
2022/11/02 10:01:54;;;;;;;11.10;2.42;;;16.50;99.90;;;;;;4120455;28;20027;-65
2022/11/02 10:04:09;;;;;;;7.85;2.17;;;16.60;99.90;;;;;;4123401;28;20475;-65
2022/11/02 10:06:18;;;;;;;10.40;2.38;;;16.60;99.90;;;;;;4122002;28;20523;-65
2022/11/02 10:08:41;;;;;;;11.15;2.65;;;16.60;99.90;;;;;;4122988;28;20034;-64
2022/11/02 10:10:56;;;;;;;7.50;2.25;;;16.60;99.90;;;;;;4122918;28;20062;-65
2022/11/02 10:13:19;;;;;;;7.35;1.90;;;16.60;99.90;;;;;;4123052;28;20042;-65
2022/11/02 10:15:27;;;;;;;11.68;2.40;;;16.60;99.90;;;;;;4121158;28;20092;-66
2022/11/02 10:17:31;;;;;;;6.53;2.00;;;16.60;99.90;;;;;;4122242;28;20121;-65
2022/11/02 10:19:35;;;;;;;6.97;2.15;;;16.60;99.90;;;;;;4125397;28;20042;-65
2022/11/02 10:21:38;;;;;;;6.70;2.00;;;16.60;99.90;;;;;;4120813;28;20045;-65
2022/11/02 10:23:52;;;;;;;5.18;1.95;;;16.60;99.90;;;;;;4122265;28;20084;-66
2022/11/02 10:25:54;;;;;;;6.50;2.15;;;16.60;99.90;;;;;;4135693;28;20053;-65
2022/11/02 10:28:03;;;;;;;5.87;1.77;;;16.70;99.90;;;;;;4123004;28;20039;-65
2022/11/02 10:30:17;;;;;;;6.22;1.88;;;16.70;99.90;;;;;;4134760;28;20269;-66
2022/11/02 10:32:18;;;;;;;8.55;2.45;;;16.70;99.90;;;;;;4116527;28;20078;-64
2022/11/02 10:34:29;;;;;;;9.25;2.08;;;16.80;99.90;;;;;;4123577;28;20042;-65
2022/11/02 10:36:45;;;;;;;10.68;2.35;;;16.80;99.90;;;;;;4122412;28;20037;-65
2022/11/02 10:39:05;;;;;;;6.63;1.95;;;16.80;99.90;;;;;;4120026;28;20078;-65
2022/11/02 10:41:25;;;;;;;7.32;2.20;;;16.90;99.90;;;;;;4119056;28;20022;-65
2022/11/02 10:43:56;;;;;;;6.88;2.33;;;16.80;99.90;;;;;;4120202;28;20034;-65
2022/11/02 10:46:19;;;;;;;8.32;2.08;;;16.70;99.90;;;;;;4120608;28;20167;-65
2022/11/02 10:48:45;;;;;;;6.18;1.92;;;16.70;99.90;;;;;;4118694;28;20034;-67
2022/11/02 10:50:52;;;;;;;10.75;2.42;;;16.70;99.90;;;;;;4123401;28;20026;-65
2022/11/02 10:52:52;;;;;;;9.65;2.63;;;16.70;99.90;;;;;;4123585;28;20030;-65
2022/11/02 10:54:54;;;;;;;9.07;2.03;;;16.70;99.90;;;;;;4124123;28;20394;-65
2022/11/02 10:56:55;;;;;;;11.77;2.65;;;16.70;99.90;;;;;;4120139;28;20389;-66
2022/11/02 10:58:59;;;;;;;5.97;1.70;;;16.70;99.90;;;;;;4121457;28;20035;-65
2022/11/02 11:01:11;;;;;;;11.45;2.10;;;16.80;99.90;;;;;;4117579;28;20046;-65
2022/11/02 11:03:14;;;;;;;8.00;2.28;;;16.80;99.90;;;;;;4123108;28;20030;-65